Pagrindinis puslapis
METAR-TAF:

METAR-TAF

Oro uostai :

Grenchenas, Šveicarija

platuma: 47-10-53N, ilguma: 007-24-59E, Aukštis: 430 m

Dabartinis oras

Ataskaita buvo paskelbta 22 minutes, ne 09:20 UTC
Vėjas 12 kt iš Rytų
Temperatūra 14°C
Drėgmė 55%
Slėgis 1026 hPa
Matomumas 10 km arba daugiau
nėra debesų žemiau 1500 m ir nėra kamuolinių lietaus debesų

METAR: LSZG 200920Z 09012KT CAVOK 14/05 Q1026 NOSIG

Laikas: 11:42 (09:42 UTC)

Prognozė

Ataskaita buvo paskelbta 1 valandą ir 17 minutes, ne 08:25 UTC
Prognozė galioja nuo 20 metu 09 UTC su 20 metu 18 UTC
Vėjas 5 kt iš Rytų
Matomumas 10 km arba daugiau
nėra debesų žemiau 1500 m ir nėra kamuolinių lietaus debesų

TAF: LSZG 200825Z 2009/2018 08005KT CAVOK

Orai ataskaitas ir orų prognozės (METAR, TAF).

turimą stotys yra geltonos ir raudonos taškus žemėlapyje.

Perkelti pele per norėdami pamatyti stoties vardą.

Tada spustelėkite, norėdami matyti oro stebėjimo ir prognozės.

Norėdami pakeisti žemėlapį: spustelėkite ant žalios mygtukų su juodo kryžiaus žemyn,; žalią mygtuką su brūkšneliu, jei norite nutolinti; arba žalių rodyklių gretimoms žemėlapius.


METAR-TAF: